Time;durP1;ratioP1;P1;durP2;ratioP2;P2;SDS_P1;SDS_P2;PMS_P1;PMS_P2;Temp;Humidity;BMP_temperature;BMP_pressure;BME280_temperature;BME280_humidity;BME280_pressure;Samples;Min_cycle;Max_cycle;Signal;HPM_P1;HPM_P2
2020/12/24 00:01:25;;;;;;;15.85;11.80;;;;;;;13.37;60.43;101721.72;5032544;28;20041;-48
2020/12/24 00:03:50;;;;;;;18.15;13.02;;;;;;;13.39;60.80;101717.78;5026539;28;20041;-50
2020/12/24 00:06:15;;;;;;;16.50;13.15;;;;;;;13.37;60.77;101713.66;5032923;28;20489;-49
2020/12/24 00:08:41;;;;;;;26.45;18.77;;;;;;;13.52;60.46;101711.31;5032707;28;20095;-48
2020/12/24 00:11:08;;;;;;;14.88;11.43;;;;;;;13.57;60.78;101710.63;5032739;28;20039;-52
2020/12/24 00:13:34;;;;;;;13.95;12.07;;;;;;;13.55;60.91;101708.16;5032621;28;20128;-51
2020/12/24 00:16:00;;;;;;;25.75;15.30;;;;;;;13.45;60.62;101702.53;5032580;28;20029;-50
2020/12/24 00:18:25;;;;;;;20.70;14.43;;;;;;;13.42;61.09;101700.31;5032216;28;20498;-49
2020/12/24 00:20:52;;;;;;;16.65;11.43;;;;;;;13.43;61.73;101697.38;5032508;28;20046;-51
2020/12/24 00:23:18;;;;;;;24.55;16.40;;;;;;;13.40;61.12;101699.72;5032368;28;20526;-48
2020/12/24 00:25:43;;;;;;;22.80;19.08;;;;;;;13.30;61.29;101691.38;5027926;28;20037;-47
2020/12/24 00:28:09;;;;;;;25.50;19.17;;;;;;;13.28;61.51;101688.91;5032069;28;20034;-48
2020/12/24 00:30:35;;;;;;;22.25;18.02;;;;;;;13.31;61.12;101688.47;5031772;28;20044;-48
2020/12/24 00:33:00;;;;;;;17.52;14.85;;;;;;;13.11;61.59;101683.38;5032072;28;20041;-50
2020/12/24 00:35:25;;;;;;;20.15;14.90;;;;;;;13.05;61.98;101676.25;5031740;28;20115;-49
2020/12/24 00:37:51;;;;;;;17.25;13.50;;;;;;;13.14;61.98;101677.53;5032189;28;20091;-50
2020/12/24 00:40:16;;;;;;;17.38;12.23;;;;;;;13.14;61.84;101669.47;5031878;28;20076;-50
2020/12/24 00:42:42;;;;;;;13.10;9.10;;;;;;;13.19;61.78;101658.81;5032123;28;20041;-49
2020/12/24 00:45:07;;;;;;;18.00;12.65;;;;;;;13.20;61.58;101665.84;5031596;28;20037;-51
2020/12/24 00:47:33;;;;;;;13.02;9.05;;;;;;;13.27;61.80;101665.75;5031949;28;20460;-54
2020/12/24 00:49:58;;;;;;;22.70;10.38;;;;;;;13.20;61.70;101662.31;5032107;28;20117;-51
2020/12/24 00:52:23;;;;;;;15.35;8.57;;;;;;;13.27;61.73;101675.69;5031739;28;20049;-51
2020/12/24 00:54:49;;;;;;;14.93;10.25;;;;;;;13.24;61.80;101668.91;5031899;28;20029;-50
2020/12/24 00:57:14;;;;;;;13.90;10.55;;;;;;;13.15;62.48;101667.63;5031712;28;20037;-48
2020/12/24 00:59:40;;;;;;;13.25;8.00;;;;;;;13.15;62.85;101670.31;5032323;28;20034;-49
2020/12/24 01:02:05;;;;;;;20.83;10.38;;;;;;;13.15;62.75;101671.13;5032541;28;20387;-47
2020/12/24 01:04:31;;;;;;;11.68;7.15;;;;;;;13.09;63.18;101668.53;5032052;28;20053;-50
2020/12/24 01:06:56;;;;;;;16.02;8.95;;;;;;;13.02;62.64;101671.34;5032465;28;20084;-50
2020/12/24 01:09:22;;;;;;;12.90;10.50;;;;;;;13.02;62.61;101668.66;5032411;28;20467;-49
2020/12/24 01:11:48;;;;;;;14.52;10.90;;;;;;;13.13;62.52;101670.53;5032405;28;20486;-51
2020/12/24 01:14:13;;;;;;;14.55;9.60;;;;;;;13.16;62.68;101661.16;5032518;28;20041;-48
2020/12/24 01:16:39;;;;;;;12.70;7.28;;;;;;;13.15;62.75;101668.44;5032261;28;20066;-50
2020/12/24 01:19:04;;;;;;;16.45;10.68;;;;;;;13.22;62.31;101681.78;5031610;28;20037;-51
2020/12/24 01:21:30;;;;;;;13.23;11.43;;;;;;;13.22;62.19;101673.69;5032104;28;20048;-49
2020/12/24 01:23:56;;;;;;;20.83;14.15;;;;;;;13.03;62.33;101676.50;5031731;28;20033;-48
2020/12/24 01:26:21;;;;;;;22.42;14.13;;;;;;;12.98;62.95;101686.31;5032061;28;20040;-48
2020/12/24 01:28:47;;;;;;;14.93;13.43;;;;;;;12.92;62.98;101687.25;5031880;28;20448;-52
2020/12/24 01:31:12;;;;;;;31.73;12.15;;;;;;;12.82;63.09;101696.72;5032016;28;20403;-48
2020/12/24 01:33:38;;;;;;;24.88;13.48;;;;;;;13.01;62.79;101691.25;5028924;28;20030;-50
2020/12/24 01:36:03;;;;;;;19.00;15.13;;;;;;;12.90;62.91;101686.66;5031447;28;20057;-50
2020/12/24 01:38:29;;;;;;;15.15;13.57;;;;;;;12.79;63.21;101693.66;5029438;28;20076;-51
2020/12/24 01:41:02;;;;;;;20.88;13.15;;;;;;;12.84;63.10;101693.78;5031098;28;20041;-50
2020/12/24 01:43:28;;;;;;;14.10;11.25;;;;;;;12.95;63.14;101692.16;5031710;28;20116;-51
2020/12/24 01:45:55;;;;;;;16.55;12.25;;;;;;;13.05;63.09;101684.34;5028415;28;20034;-47
2020/12/24 01:48:22;;;;;;;23.40;14.52;;;;;;;12.97;62.98;101698.97;5030885;28;20183;-52
2020/12/24 01:50:47;;;;;;;16.63;11.45;;;;;;;12.90;63.40;101683.97;5031684;28;20034;-50
2020/12/24 01:53:19;;;;;;;14.75;12.15;;;;;;;13.02;62.90;101682.09;5031357;28;20498;-51
2020/12/24 01:55:45;;;;;;;;;;;;;;;13.02;63.13;101687.50;5032118;28;20507;-50
2020/12/24 01:58:11;;;;;;;21.50;10.93;;;;;;;12.99;63.49;101687.94;5031271;28;19948;-51
2020/12/24 02:00:36;;;;;;;16.52;10.52;;;;;;;13.05;63.30;101678.94;5031580;28;20033;-49
2020/12/24 02:03:02;;;;;;;15.25;11.20;;;;;;;13.08;62.74;101683.88;5031409;28;20371;-51
2020/12/24 02:05:27;;;;;;;20.08;11.70;;;;;;;13.05;63.00;101679.75;5031319;28;20029;-51
2020/12/24 02:07:52;;;;;;;23.35;15.85;;;;;;;13.09;63.64;101679.31;5031190;28;20407;-49
2020/12/24 02:10:18;;;;;;;18.75;13.85;;;;;;;12.97;63.57;101673.91;5025303;28;20044;-51
2020/12/24 02:12:45;;;;;;;19.35;14.35;;;;;;;12.81;64.57;101684.28;5031229;28;20059;-48
2020/12/24 02:15:10;;;;;;;16.77;13.07;;;;;;;12.74;64.35;101672.00;5031168;28;20037;-50
2020/12/24 02:17:36;;;;;;;12.77;11.45;;;;;;;12.73;65.21;101673.88;5030178;28;20037;-50
2020/12/24 02:20:01;;;;;;;15.38;10.98;;;;;;;12.76;64.56;101665.34;5031129;28;20061;-49
2020/12/24 02:22:26;;;;;;;13.32;10.95;;;;;;;12.77;63.82;101664.28;5031329;28;20096;-49
2020/12/24 02:24:52;;;;;;;11.88;10.68;;;;;;;12.79;64.20;101664.06;5031174;28;20452;-49
2020/12/24 02:27:17;;;;;;;14.70;12.55;;;;;;;12.89;64.03;101652.72;5031363;28;20037;-52
2020/12/24 02:29:43;;;;;;;23.50;14.00;;;;;;;12.80;63.78;101649.56;5028582;28;20025;-48
2020/12/24 02:32:08;;;;;;;16.25;12.52;;;;;;;12.57;64.59;101647.63;5031606;28;20030;-48
2020/12/24 02:34:34;;;;;;;17.30;12.95;;;;;;;12.49;64.76;101646.91;5030724;28;20091;-49
2020/12/24 02:36:59;;;;;;;17.92;12.20;;;;;;;12.57;64.31;101644.94;5031396;28;20033;-50
2020/12/24 02:39:25;;;;;;;19.40;12.02;;;;;;;12.50;64.88;101653.13;5031054;28;20455;-47
2020/12/24 02:41:50;;;;;;;11.50;9.00;;;;;;;12.61;64.67;101646.94;5031445;28;20030;-46
2020/12/24 02:44:16;;;;;;;11.98;9.25;;;;;;;12.52;65.31;101652.88;5030542;28;20046;-50
2020/12/24 02:46:42;;;;;;;13.98;9.82;;;;;;;12.38;65.20;101647.69;5031218;28;20041;-47
2020/12/24 02:49:08;;;;;;;16.23;10.25;;;;;;;12.44;65.06;101640.59;5030713;28;20049;-50
2020/12/24 02:51:33;;;;;;;18.45;9.75;;;;;;;12.49;64.68;101644.22;5030708;28;20037;-51
2020/12/24 02:53:59;;;;;;;16.88;11.85;;;;;;;12.36;65.31;101639.06;5034273;28;20352;-49
2020/12/24 02:56:24;;;;;;;17.83;12.90;;;;;;;12.39;65.01;101643.94;5034894;28;20051;-48
2020/12/24 02:58:49;;;;;;;18.10;13.18;;;;;;;12.29;65.88;101647.19;5034861;28;20041;-51
2020/12/24 03:01:15;;;;;;;21.55;13.73;;;;;;;12.31;65.85;101652.34;5033274;28;20097;-51
2020/12/24 03:03:41;;;;;;;15.20;11.05;;;;;;;12.35;66.16;101645.47;5034445;28;20037;-48
2020/12/24 03:06:06;;;;;;;12.00;7.75;;;;;;;12.39;66.34;101645.81;5034358;28;20037;-48
2020/12/24 03:08:32;;;;;;;14.02;11.07;;;;;;;12.40;65.93;101653.66;5034213;28;20036;-53
2020/12/24 03:10:57;;;;;;;16.90;9.38;;;;;;;12.48;66.07;101647.13;5029645;28;20038;-50
2020/12/24 03:13:23;;;;;;;10.38;6.88;;;;;;;12.49;65.81;101638.84;5021703;28;20041;-48
2020/12/24 03:15:48;;;;;;;9.05;7.03;;;;;;;12.54;65.60;101635.47;5019297;28;20092;-50
2020/12/24 03:18:15;;;;;;;8.27;7.25;;;;;;;12.40;66.54;101640.22;5020332;28;20042;-48
2020/12/24 03:20:40;;;;;;;7.70;6.45;;;;;;;12.30;66.73;101634.56;5019850;28;20037;-49
2020/12/24 03:23:06;;;;;;;13.48;8.60;;;;;;;12.26;67.08;101622.66;5019455;28;20361;-49
2020/12/24 03:25:31;;;;;;;13.57;10.10;;;;;;;12.47;65.93;101619.41;5021202;28;20464;-50
2020/12/24 03:27:57;;;;;;;10.50;8.00;;;;;;;12.33;66.00;101617.19;5018771;28;20432;-48
2020/12/24 03:30:22;;;;;;;10.07;8.15;;;;;;;12.30;66.49;101608.50;5021450;28;20038;-48
2020/12/24 03:32:48;;;;;;;21.60;8.85;;;;;;;12.36;66.24;101608.63;5033922;28;20113;-51
2020/12/24 03:35:13;;;;;;;12.88;8.38;;;;;;;12.29;66.59;101601.50;5033592;28;20367;-52
2020/12/24 03:37:39;;;;;;;8.13;5.10;;;;;;;12.29;66.83;101600.69;5033010;28;20045;-48
2020/12/24 03:40:04;;;;;;;8.10;5.78;;;;;;;12.37;66.40;101604.91;5031062;28;20037;-48
2020/12/24 03:42:30;;;;;;;16.45;7.57;;;;;;;12.39;65.79;101606.28;5021022;28;20403;-49
2020/12/24 03:44:55;;;;;;;11.02;7.00;;;;;;;12.33;65.63;101609.91;5018759;28;20042;-47
2020/12/24 03:47:21;;;;;;;8.05;7.25;;;;;;;12.25;66.58;101605.69;5021217;28;20504;-48
2020/12/24 03:49:47;;;;;;;11.18;7.47;;;;;;;12.33;66.03;101609.91;5024155;28;20045;-53
2020/12/24 03:52:12;;;;;;;8.93;6.70;;;;;;;12.32;65.85;101616.34;5030575;28;20029;-47
2020/12/24 03:54:38;;;;;;;12.15;6.10;;;;;;;12.22;66.80;101618.75;5033428;28;20092;-48
2020/12/24 03:57:03;;;;;;;9.43;7.47;;;;;;;12.18;66.65;101620.28;5027825;28;20034;-53
2020/12/24 03:59:29;;;;;;;11.32;8.75;;;;;;;12.34;65.89;101619.63;5033542;28;20025;-52
2020/12/24 04:01:54;;;;;;;12.32;9.45;;;;;;;12.36;65.73;101619.38;5033651;28;20487;-53
2020/12/24 04:04:19;;;;;;;10.95;8.05;;;;;;;12.27;65.59;101618.88;5032838;28;20090;-53
2020/12/24 04:06:45;;;;;;;10.85;4.55;;;;;;;12.26;66.43;101617.25;5033328;28;20041;-53
2020/12/24 04:09:10;;;;;;;11.82;5.57;;;;;;;12.17;65.94;101618.66;5033282;28;20037;-51
2020/12/24 04:11:36;;;;;;;8.35;4.97;;;;;;;12.08;66.61;101618.16;5033437;28;20064;-49
2020/12/24 04:14:01;;;;;;;3.80;3.08;;;;;;;12.03;67.20;101621.50;5033222;28;20033;-53
2020/12/24 04:16:27;;;;;;;5.65;4.57;;;;;;;11.94;67.60;101622.88;5027138;28;20033;-54
2020/12/24 04:18:52;;;;;;;10.10;4.50;;;;;;;12.13;66.74;101622.81;5033034;28;20046;-51
2020/12/24 04:21:19;;;;;;;5.15;4.40;;;;;;;12.29;66.78;101624.88;5032734;28;20029;-50
2020/12/24 04:23:45;;;;;;;7.50;5.25;;;;;;;12.35;66.44;101623.94;5031815;28;20472;-49
2020/12/24 04:26:20;;;;;;;7.15;3.78;;;;;;;12.34;65.99;101619.63;5032980;28;20037;-51
2020/12/24 04:28:46;;;;;;;6.28;3.28;;;;;;;12.30;67.13;101618.44;5029563;28;20069;-53
2020/12/24 04:31:12;;;;;;;5.72;3.83;;;;;;;12.23;66.77;101620.41;5018863;28;20069;-50
2020/12/24 04:33:39;;;;;;;9.05;7.25;;;;;;;12.30;66.86;101613.06;5019198;28;20438;-49
2020/12/24 04:36:04;;;;;;;43.25;17.48;;;;;;;12.25;66.39;101604.84;5028905;28;20051;-52
2020/12/24 04:38:30;;;;;;;47.25;22.77;;;;;;;12.23;65.93;101604.28;5032069;28;20037;-48
2020/12/24 04:40:59;;;;;;;31.45;18.10;;;;;;;12.21;66.07;101603.69;5032720;28;20037;-48
2020/12/24 04:43:28;;;;;;;27.38;13.30;;;;;;;12.19;66.44;101600.41;5032160;28;20160;-48
2020/12/24 04:45:55;;;;;;;24.40;11.75;;;;;;;12.00;66.88;101588.88;5032556;28;20041;-50
2020/12/24 04:48:21;;;;;;;15.57;11.77;;;;;;;12.08;66.61;101599.34;5032317;28;20530;-47
2020/12/24 04:50:51;;;;;;;14.70;10.02;;;;;;;12.14;66.51;101592.22;5026680;28;20091;-48
2020/12/24 04:53:18;;;;;;;11.85;9.25;;;;;;;12.14;66.31;101598.41;5032037;28;20384;-49
2020/12/24 04:55:44;;;;;;;6.30;5.30;;;;;;;12.13;65.94;101609.38;5032812;28;20037;-49
2020/12/24 04:58:10;;;;;;;12.25;6.93;;;;;;;12.02;66.38;101602.91;5032354;28;20037;-47
2020/12/24 05:00:39;;;;;;;10.20;7.25;;;;;;;12.12;66.41;101608.56;5032493;28;20034;-47
2020/12/24 05:03:09;;;;;;;8.85;5.88;;;;;;;12.13;66.02;101604.00;5031853;28;20056;-52
2020/12/24 05:05:37;;;;;;;6.10;5.30;;;;;;;12.00;66.88;101603.13;5032078;28;20037;-48
2020/12/24 05:08:04;;;;;;;10.88;6.50;;;;;;;12.04;66.75;101614.25;5032021;28;20109;-52
2020/12/24 05:10:30;;;;;;;10.68;6.95;;;;;;;12.08;66.32;101618.97;5029884;28;20086;-47
2020/12/24 05:12:57;;;;;;;7.65;6.15;;;;;;;12.02;66.26;101627.91;5032262;28;20040;-46
2020/12/24 05:15:31;;;;;;;8.63;6.25;;;;;;;12.07;66.11;101625.38;5031820;28;20041;-47
2020/12/24 05:18:22;;;;;;;4.88;3.97;;;;;;;12.00;66.06;101626.50;5031787;28;20053;-50
2020/12/24 05:20:48;;;;;;;7.32;4.05;;;;;;;11.87;66.98;101630.19;5025492;28;20098;-50
2020/12/24 05:23:21;;;;;;;7.90;5.07;;;;;;;11.96;67.12;101619.97;5031392;28;20041;-46
2020/12/24 05:25:48;;;;;;;6.57;3.70;;;;;;;12.09;67.48;101617.88;5031219;28;20037;-49
2020/12/24 05:28:28;;;;;;;7.40;4.53;;;;;;;12.15;66.79;101613.50;5022080;28;20102;-49
2020/12/24 05:30:54;;;;;;;5.70;3.35;;;;;;;12.12;67.35;101621.19;5025514;28;20475;-49
2020/12/24 05:33:32;;;;;;;7.40;3.85;;;;;;;12.13;66.93;101620.94;5027580;28;20041;-49
2020/12/24 05:36:20;;;;;;;4.78;2.70;;;;;;;12.23;66.47;101623.91;5022162;28;20045;-48
2020/12/24 05:38:47;;;;;;;4.60;3.38;;;;;;;12.10;66.93;101619.53;5022128;28;20575;-50
2020/12/24 05:41:35;;;;;;;5.25;3.95;;;;;;;12.16;66.92;101625.88;5026422;28;20049;-50
2020/12/24 05:44:12;;;;;;;9.68;6.15;;;;;;;12.12;66.58;101626.56;5023390;28;20045;-53
2020/12/24 05:46:48;;;;;;;12.80;5.20;;;;;;;12.06;66.96;101631.81;5026557;28;20045;-51
2020/12/24 05:49:19;;;;;;;8.05;5.60;;;;;;;11.87;67.32;101630.19;5027208;28;20067;-51
2020/12/24 05:51:49;;;;;;;6.55;5.85;;;;;;;11.95;66.93;101637.94;5027540;28;20511;-49
2020/12/24 05:54:16;;;;;;;8.80;4.43;;;;;;;11.94;66.78;101635.47;5027061;28;20111;-48
2020/12/24 05:56:43;;;;;;;7.63;5.28;;;;;;;12.08;66.54;101643.16;5025428;28;20113;-48
2020/12/24 05:59:15;;;;;;;13.73;7.85;;;;;;;11.95;66.74;101646.00;5021762;28;20033;-48
2020/12/24 06:01:58;;;;;;;16.63;9.75;;;;;;;11.80;67.46;101657.13;5027431;28;20048;-48
2020/12/24 06:04:42;;;;;;;23.98;14.02;;;;;;;11.81;67.17;101652.56;5027290;28;20041;-50
2020/12/24 06:07:08;;;;;;;9.38;6.60;;;;;;;11.87;66.67;101651.66;5027119;28;20064;-51
2020/12/24 06:09:38;;;;;;;11.57;6.25;;;;;;;11.73;67.53;101657.19;5027476;28;20047;-49
2020/12/24 06:12:25;;;;;;;9.73;7.45;;;;;;;11.66;67.64;101656.44;5027585;28;20060;-51
2020/12/24 06:14:55;;;;;;;11.90;7.60;;;;;;;11.57;68.14;101655.13;5026873;28;20063;-47
2020/12/24 06:17:22;;;;;;;9.60;6.10;;;;;;;11.68;67.21;101654.34;5027038;28;20496;-47
2020/12/24 06:19:48;;;;;;;12.60;5.70;;;;;;;11.67;67.31;101663.44;5025913;28;20472;-47
2020/12/24 06:22:19;;;;;;;8.98;5.80;;;;;;;11.55;67.58;101654.50;5027301;28;20067;-46
2020/12/24 06:24:52;;;;;;;12.43;8.00;;;;;;;11.71;67.86;101653.91;5026985;28;20037;-49
2020/12/24 06:27:23;;;;;;;7.18;4.93;;;;;;;11.77;67.24;101651.38;5027250;28;20041;-48
2020/12/24 06:29:50;;;;;;;9.35;5.70;;;;;;;11.75;67.30;101656.16;5032195;28;20113;-47
2020/12/24 06:32:19;;;;;;;8.38;4.32;;;;;;;11.73;67.98;101659.06;5032744;28;20099;-46
2020/12/24 06:34:45;;;;;;;5.30;4.32;;;;;;;11.65;68.04;101652.09;5032492;28;20068;-49
2020/12/24 06:37:19;;;;;;;12.20;4.25;;;;;;;11.54;68.29;101653.69;5033812;28;20037;-44
2020/12/24 06:39:52;;;;;;;5.32;4.20;;;;;;;11.44;68.62;101644.50;5032734;28;20038;-46
2020/12/24 06:42:38;;;;;;;6.13;4.45;;;;;;;11.56;68.14;101649.97;5032426;28;20045;-48
2020/12/24 06:45:09;;;;;;;4.82;2.92;;;;;;;11.58;67.88;101648.69;5029043;28;20525;-46
2020/12/24 06:47:39;;;;;;;8.82;5.07;;;;;;;11.66;67.87;101642.22;5030718;28;20558;-44
2020/12/24 06:50:33;;;;;;;5.00;3.55;;;;;;;11.58;67.89;101648.69;5031898;28;20448;-48
2020/12/24 06:53:17;;;;;;;5.55;4.13;;;;;;;11.41;68.81;101642.25;5028276;28;20033;-44
2020/12/24 06:55:42;;;;;;;8.15;5.35;;;;;;;11.51;68.46;101656.00;5032735;28;20034;-45
2020/12/24 06:58:08;;;;;;;12.73;6.43;;;;;;;11.54;67.90;101658.25;5028005;28;20036;-44
2020/12/24 07:00:33;;;;;;;7.78;5.82;;;;;;;11.55;67.98;101659.88;5034141;28;20037;-45
2020/12/24 07:03:25;;;;;;;9.43;6.80;;;;;;;11.58;67.86;101662.13;5034258;28;20557;-44
2020/12/24 07:05:51;;;;;;;11.10;5.70;;;;;;;11.34;68.44;101656.59;5028507;28;20383;-44
2020/12/24 07:08:31;;;;;;;9.88;6.55;;;;;;;11.41;68.25;101661.88;5033490;28;20052;-45
2020/12/24 07:10:58;;;;;;;16.05;14.35;;;;;;;11.45;68.30;101655.03;5028773;28;20441;-45
2020/12/24 07:13:38;;;;;;;15.93;11.20;;;;;;;11.45;68.40;101659.59;5023800;28;20113;-44
2020/12/24 07:16:05;;;;;;;19.55;14.77;;;;;;;11.42;68.40;101658.16;5033045;28;20120;-45
2020/12/24 07:18:33;;;;;;;18.23;10.48;;;;;;;11.49;67.99;101655.41;5024445;28;20095;-44
2020/12/24 07:21:01;;;;;;;15.82;9.77;;;;;;;11.41;68.35;101663.75;5018305;28;20034;-45
2020/12/24 07:23:34;;;;;;;11.93;9.10;;;;;;;11.37;69.06;101671.41;5023761;28;20118;-44
2020/12/24 07:26:08;;;;;;;16.10;5.40;;;;;;;11.50;68.32;101662.41;5033437;28;20497;-45
2020/12/24 07:28:38;;;;;;;9.30;5.72;;;;;;;11.47;68.50;101665.56;5031732;28;20511;-45
2020/12/24 07:31:10;;;;;;;8.82;6.47;;;;;;;11.64;68.68;101663.06;5031375;28;20040;-46
2020/12/24 07:33:45;;;;;;;8.15;5.57;;;;;;;11.54;69.29;101671.66;5032139;28;20029;-46
2020/12/24 07:36:10;;;;;;;9.27;6.95;;;;;;;11.52;69.69;101666.50;5033443;28;20045;-47
2020/12/24 07:38:37;;;;;;;9.45;6.72;;;;;;;11.56;69.54;101676.81;5031890;28;20116;-45
2020/12/24 07:41:02;;;;;;;26.35;12.18;;;;;;;11.48;68.86;101678.75;5030192;28;20108;-48
2020/12/24 07:43:28;;;;;;;20.23;15.15;;;;;;;11.53;69.06;101675.38;5032374;28;20045;-49
2020/12/24 07:45:54;;;;;;;15.82;11.20;;;;;;;11.58;68.62;101680.91;5027138;28;20114;-44
2020/12/24 07:48:22;;;;;;;22.10;9.55;;;;;;;11.48;68.33;101673.38;5032803;28;20484;-46
2020/12/24 07:50:50;;;;;;;25.67;14.63;;;;;;;11.52;68.59;101684.50;5027086;28;20029;-45
2020/12/24 07:53:22;;;;;;;29.58;17.20;;;;;;;11.43;68.44;101678.59;5033032;28;20059;-46
2020/12/24 07:55:48;;;;;;;19.55;16.67;;;;;;;11.30;69.03;101681.41;5028237;28;20043;-45
2020/12/24 07:58:16;;;;;;;22.30;16.35;;;;;;;11.30;69.13;101682.22;5032542;28;20045;-43
2020/12/24 08:00:49;;;;;;;30.02;17.70;;;;;;;11.34;69.06;101694.19;5033062;28;20109;-43
2020/12/24 08:03:18;;;;;;;30.67;20.92;;;;;;;11.42;68.80;101676.94;5032765;28;20047;-44
2020/12/24 08:05:44;;;;;;;41.92;20.58;;;;;;;11.52;68.42;101685.31;5032787;28;20471;-44
2020/12/24 08:08:13;;;;;;;33.05;21.30;;;;;;;11.63;69.74;101683.75;5021000;28;20034;-44
2020/12/24 08:10:43;;;;;;;25.67;19.40;;;;;;;11.82;69.60;101679.22;5018236;28;20494;-47
2020/12/24 08:13:10;;;;;;;35.97;31.60;;;;;;;11.84;69.35;101684.34;5017976;28;20042;-47
2020/12/24 08:15:40;;;;;;;28.70;25.65;;;;;;;11.93;69.39;101684.91;5018911;28;20069;-47
2020/12/24 08:18:10;;;;;;;43.00;23.80;;;;;;;11.98;69.04;101675.13;5017168;28;20050;-49
2020/12/24 08:20:47;;;;;;;43.47;23.13;;;;;;;12.04;68.77;101684.13;5018657;28;20045;-46
2020/12/24 08:23:19;;;;;;;40.88;23.98;;;;;;;12.04;68.66;101679.59;5018429;28;20543;-48
2020/12/24 08:25:52;;;;;;;35.25;26.98;;;;;;;12.00;69.10;101693.72;5017554;28;20125;-51
2020/12/24 08:28:19;;;;;;;58.80;36.53;;;;;;;12.01;69.15;101689.97;5019227;28;20053;-44
2020/12/24 08:30:46;;;;;;;53.40;32.90;;;;;;;12.01;69.15;101695.34;5017489;28;20038;-48
2020/12/24 08:33:13;;;;;;;35.78;25.95;;;;;;;12.03;69.15;101694.06;5018102;28;20069;-48
2020/12/24 08:35:39;;;;;;;32.67;24.83;;;;;;;12.12;68.83;101709.91;5017768;28;20135;-49
2020/12/24 08:38:22;;;;;;;34.80;23.20;;;;;;;12.12;68.82;101713.41;5043028;28;20079;-47
2020/12/24 08:40:48;;;;;;;27.27;23.85;;;;;;;12.22;68.77;101715.53;5017851;28;20030;-46
2020/12/24 08:43:14;;;;;;;37.20;27.85;;;;;;;12.23;69.24;101719.88;5023553;28;20400;-47
2020/12/24 08:45:44;;;;;;;41.85;32.40;;;;;;;12.21;68.82;101724.69;5031465;28;20029;-49
2020/12/24 08:48:10;;;;;;;35.42;30.88;;;;;;;12.17;69.74;101721.63;5026113;28;20038;-46
2020/12/24 08:50:37;;;;;;;47.60;35.58;;;;;;;12.24;68.92;101732.31;5017747;28;20040;-45
2020/12/24 08:53:06;;;;;;;54.08;32.33;;;;;;;12.28;69.71;101728.09;5016271;28;20038;-48
2020/12/24 08:55:32;;;;;;;40.03;30.52;;;;;;;12.37;69.25;101721.34;5029736;28;20033;-49
2020/12/24 08:57:58;;;;;;;52.10;40.17;;;;;;;12.49;69.25;101724.91;5031542;28;20124;-48
2020/12/24 09:00:25;;;;;;;60.80;45.63;;;;;;;12.47;69.63;101724.31;5031367;28;20165;-49
2020/12/24 09:02:51;;;;;;;62.75;45.85;;;;;;;12.35;70.57;101718.06;5031459;28;20045;-54
2020/12/24 09:05:26;;;;;;;55.17;42.60;;;;;;;12.40;70.52;101728.16;5031114;28;20037;-48
2020/12/24 09:07:52;;;;;;;213.85;163.98;;;;;;;12.49;70.65;101732.16;5024344;28;20033;-44
2020/12/24 09:10:27;;;;;;;216.88;174.30;;;;;;;12.62;70.63;101736.53;5025539;28;20069;-46
2020/12/24 09:13:02;;;;;;;107.22;77.25;;;;;;;12.75;70.43;101739.03;5020736;28;20113;-45
2020/12/24 09:15:29;;;;;;;59.83;40.45;;;;;;;12.78;70.54;101733.22;5028673;28;20025;-44
2020/12/24 09:17:59;;;;;;;50.45;38.42;;;;;;;12.86;71.22;101735.56;5031231;28;20072;-44
2020/12/24 09:20:27;;;;;;;80.03;56.03;;;;;;;12.88;71.34;101739.91;5030990;28;20033;-50
2020/12/24 09:22:53;;;;;;;98.97;79.05;;;;;;;12.98;71.58;101732.09;5031021;28;20384;-44
2020/12/24 09:25:30;;;;;;;144.63;107.30;;;;;;;13.01;71.66;101740.53;5029923;28;20033;-50
2020/12/24 09:27:55;;;;;;;119.82;98.93;;;;;;;13.01;71.00;101739.72;5026214;28;20033;-44
2020/12/24 09:30:21;;;;;;;123.53;93.88;;;;;;;13.03;71.78;101738.41;5030845;28;20461;-50
2020/12/24 09:33:01;;;;;;;101.70;81.82;;;;;;;13.06;71.44;101731.75;5031037;28;20039;-45
2020/12/24 09:35:28;;;;;;;95.68;68.18;;;;;;;13.12;71.62;101732.69;5030778;28;20053;-46
2020/12/24 09:37:56;;;;;;;76.43;62.50;;;;;;;13.17;71.54;101732.81;5030782;28;20053;-43
2020/12/24 09:40:23;;;;;;;101.38;68.85;;;;;;;13.23;71.45;101730.00;5030081;28;20040;-45
2020/12/24 09:42:49;;;;;;;74.70;58.78;;;;;;;13.31;71.32;101734.28;5021557;28;20038;-45
2020/12/24 09:45:15;;;;;;;74.18;56.65;;;;;;;13.40;71.79;101734.75;5027446;28;20030;-46
2020/12/24 09:47:46;;;;;;;86.82;57.08;;;;;;;13.49;71.41;101727.94;5030880;28;20060;-44
2020/12/24 09:50:13;;;;;;;105.50;66.25;;;;;;;13.52;71.51;101737.44;5027339;28;20026;-48
2020/12/24 09:52:38;;;;;;;80.38;65.85;;;;;;;13.57;70.70;101735.69;5017845;28;20041;-47
2020/12/24 09:55:04;;;;;;;66.53;59.03;;;;;;;13.60;70.93;101735.22;5023372;28;20029;-49
2020/12/24 09:57:34;;;;;;;83.60;60.13;;;;;;;13.65;70.54;101736.38;5023651;28;20041;-50
2020/12/24 10:00:01;;;;;;;62.05;54.92;;;;;;;13.66;71.30;101741.53;5026665;28;20033;-47
2020/12/24 10:02:26;;;;;;;60.17;50.22;;;;;;;13.71;71.80;101740.81;5025524;28;20117;-44
2020/12/24 10:04:55;;;;;;;61.53;46.95;;;;;;;13.75;71.17;101742.00;5024857;28;20029;-43
2020/12/24 10:07:24;;;;;;;55.13;48.45;;;;;;;13.81;71.94;101743.72;5020851;28;20103;-46
2020/12/24 10:09:50;;;;;;;79.95;72.00;;;;;;;14.03;72.91;101735.84;5025031;28;20065;-44
2020/12/24 10:12:20;;;;;;;57.80;49.90;;;;;;;14.40;72.64;101738.19;5026443;28;20037;-47
2020/12/24 10:14:46;;;;;;;55.30;46.95;;;;;;;14.61;72.30;101734.03;5027507;28;20514;-45
2020/12/24 10:17:11;;;;;;;63.75;54.03;;;;;;;14.80;71.78;101739.22;5027754;28;20037;-43
2020/12/24 10:19:37;;;;;;;70.60;56.25;;;;;;;15.02;72.10;101742.03;5027794;28;20097;-44
2020/12/24 10:22:02;;;;;;;86.30;66.72;;;;;;;15.09;71.69;101742.69;5028036;28;20654;-49
2020/12/24 10:24:28;;;;;;;71.85;64.50;;;;;;;15.09;71.90;101743.50;5027575;28;20117;-48
2020/12/24 10:26:55;;;;;;;66.30;59.05;;;;;;;15.00;72.06;101736.84;5026092;28;20064;-49
2020/12/24 10:29:21;;;;;;;67.25;54.63;;;;;;;15.04;72.38;101743.44;5027994;28;20555;-49
2020/12/24 10:31:47;;;;;;;70.93;58.60;;;;;;;15.03;72.55;101738.28;5025861;28;20052;-50
2020/12/24 10:34:13;;;;;;;53.00;45.50;;;;;;;15.07;72.72;101737.50;5027380;28;20061;-45
2020/12/24 10:36:39;;;;;;;50.22;44.80;;;;;;;15.12;72.94;101729.50;5027488;28;20159;-44
2020/12/24 10:39:07;;;;;;;51.50;45.95;;;;;;;15.20;73.10;101738.25;5027037;28;20042;-48
2020/12/24 10:41:33;;;;;;;45.75;40.08;;;;;;;15.30;73.51;101730.31;5027234;28;20343;-47
2020/12/24 10:43:59;;;;;;;42.85;34.75;;;;;;;15.34;72.87;101727.94;5022995;28;20030;-47
2020/12/24 10:46:25;;;;;;;40.15;31.45;;;;;;;15.38;73.18;101721.00;5022164;28;20060;-47
2020/12/24 10:48:50;;;;;;;37.83;29.08;;;;;;;15.42;72.96;101712.13;5027376;28;20714;-45
2020/12/24 10:51:16;;;;;;;41.10;30.60;;;;;;;15.85;71.75;101698.97;5027181;28;20135;-73
2020/12/24 10:53:41;;;;;;;31.40;28.15;;;;;;;16.15;70.38;101695.78;5027367;28;20038;-73
2020/12/24 10:56:14;;;;;;;55.45;39.10;;;;;;;16.24;70.05;101696.97;5027279;28;20037;-73
2020/12/24 10:58:43;;;;;;;36.08;29.70;;;;;;;16.52;69.04;101686.97;5025221;28;20042;-73
2020/12/24 11:01:13;;;;;;;30.05;23.80;;;;;;;16.75;67.91;101691.22;5024814;28;20037;-74
2020/12/24 11:03:38;;;;;;;18.25;15.55;;;;;;;16.89;66.58;101688.13;5027067;28;20044;-68
2020/12/24 11:06:07;;;;;;;20.30;11.52;;;;;;;17.09;64.90;101677.47;5024595;28;20102;-69
2020/12/24 11:08:33;;;;;;;14.43;11.15;;;;;;;17.16;64.62;101674.50;5024416;28;20158;-70
2020/12/24 11:10:59;;;;;;;21.73;13.15;;;;;;;17.24;64.54;101676.72;5021514;28;20484;-68
2020/12/24 11:13:25;;;;;;;18.55;13.13;;;;;;;17.21;64.55;101669.13;5025272;28;20045;-70
2020/12/24 11:15:50;;;;;;;12.30;10.82;;;;;;;17.30;64.00;101669.44;5030622;28;20041;-70
2020/12/24 11:18:16;;;;;;;11.73;10.52;;;;;;;17.39;63.57;101676.00;5030811;28;20045;-71